sensor_id;sensor_type;location;lat;lon;timestamp;pressure;altitude;pressure_sealevel;temperature
18782;BMP180;9519;51.890;8.970;2022-08-21T00:01:14;99501.00;;;15.20
18782;BMP180;9519;51.890;8.970;2022-08-21T00:06:17;99495.00;;;15.20
18782;BMP180;9519;51.890;8.970;2022-08-21T00:11:21;99492.00;;;15.20
18782;BMP180;9519;51.890;8.970;2022-08-21T00:16:23;99482.00;;;15.20
18782;BMP180;9519;51.890;8.970;2022-08-21T00:21:25;99481.00;;;15.10
18782;BMP180;9519;51.890;8.970;2022-08-21T00:26:29;99478.00;;;15.00
18782;BMP180;9519;51.890;8.970;2022-08-21T00:31:31;99486.00;;;15.00
18782;BMP180;9519;51.890;8.970;2022-08-21T00:36:34;99488.00;;;15.00
18782;BMP180;9519;51.890;8.970;2022-08-21T00:41:39;99476.00;;;14.90
18782;BMP180;9519;51.890;8.970;2022-08-21T00:46:43;99485.00;;;14.80
18782;BMP180;9519;51.890;8.970;2022-08-21T00:51:49;99486.00;;;14.80
18782;BMP180;9519;51.890;8.970;2022-08-21T00:57:00;99484.00;;;14.80
18782;BMP180;9519;51.890;8.970;2022-08-21T01:02:08;99478.00;;;14.80
18782;BMP180;9519;51.890;8.970;2022-08-21T01:07:11;99481.00;;;14.70
18782;BMP180;9519;51.890;8.970;2022-08-21T01:12:15;99481.00;;;14.60
18782;BMP180;9519;51.890;8.970;2022-08-21T01:17:21;99488.00;;;14.60
18782;BMP180;9519;51.890;8.970;2022-08-21T01:22:24;99487.00;;;14.60
18782;BMP180;9519;51.890;8.970;2022-08-21T01:27:27;99486.00;;;14.60
18782;BMP180;9519;51.890;8.970;2022-08-21T01:32:29;99482.00;;;14.50
18782;BMP180;9519;51.890;8.970;2022-08-21T01:37:33;99493.00;;;14.40
18782;BMP180;9519;51.890;8.970;2022-08-21T01:42:39;99492.00;;;14.40
18782;BMP180;9519;51.890;8.970;2022-08-21T01:47:41;99483.00;;;14.40
18782;BMP180;9519;51.890;8.970;2022-08-21T01:52:44;99479.00;;;14.40
18782;BMP180;9519;51.890;8.970;2022-08-21T01:57:48;99474.00;;;14.40
18782;BMP180;9519;51.890;8.970;2022-08-21T02:02:51;99459.00;;;14.40
18782;BMP180;9519;51.890;8.970;2022-08-21T02:07:55;99460.00;;;14.40
18782;BMP180;9519;51.890;8.970;2022-08-21T02:12:59;99441.00;;;14.40
18782;BMP180;9519;51.890;8.970;2022-08-21T02:18:04;99452.00;;;14.40
18782;BMP180;9519;51.890;8.970;2022-08-21T02:23:10;99437.00;;;14.40
18782;BMP180;9519;51.890;8.970;2022-08-21T02:28:15;99442.00;;;14.40
18782;BMP180;9519;51.890;8.970;2022-08-21T02:33:18;99439.00;;;14.40
18782;BMP180;9519;51.890;8.970;2022-08-21T02:38:28;99431.00;;;14.30
18782;BMP180;9519;51.890;8.970;2022-08-21T02:43:30;99442.00;;;14.30
18782;BMP180;9519;51.890;8.970;2022-08-21T02:48:34;99434.00;;;14.40
18782;BMP180;9519;51.890;8.970;2022-08-21T02:53:40;99428.00;;;14.30
18782;BMP180;9519;51.890;8.970;2022-08-21T02:58:47;99433.00;;;14.30
18782;BMP180;9519;51.890;8.970;2022-08-21T03:03:50;99434.00;;;14.30
18782;BMP180;9519;51.890;8.970;2022-08-21T03:08:53;99429.00;;;14.30
18782;BMP180;9519;51.890;8.970;2022-08-21T03:13:56;99415.00;;;14.30
18782;BMP180;9519;51.890;8.970;2022-08-21T03:18:58;99420.00;;;14.30
18782;BMP180;9519;51.890;8.970;2022-08-21T03:24:02;99413.00;;;14.20
18782;BMP180;9519;51.890;8.970;2022-08-21T03:29:05;99424.00;;;14.20
18782;BMP180;9519;51.890;8.970;2022-08-21T03:34:08;99417.00;;;14.20
18782;BMP180;9519;51.890;8.970;2022-08-21T03:39:12;99428.00;;;14.20
18782;BMP180;9519;51.890;8.970;2022-08-21T03:44:14;99421.00;;;14.20
18782;BMP180;9519;51.890;8.970;2022-08-21T03:49:16;99422.00;;;14.20
18782;BMP180;9519;51.890;8.970;2022-08-21T03:54:20;99424.00;;;14.10
18782;BMP180;9519;51.890;8.970;2022-08-21T03:59:22;99425.00;;;14.10
18782;BMP180;9519;51.890;8.970;2022-08-21T04:04:27;99431.00;;;14.10
18782;BMP180;9519;51.890;8.970;2022-08-21T04:09:31;99434.00;;;14.10
18782;BMP180;9519;51.890;8.970;2022-08-21T04:14:33;99444.00;;;14.10
18782;BMP180;9519;51.890;8.970;2022-08-21T04:19:35;99441.00;;;14.20
18782;BMP180;9519;51.890;8.970;2022-08-21T04:24:39;99453.00;;;14.20
18782;BMP180;9519;51.890;8.970;2022-08-21T04:29:41;99452.00;;;14.30
18782;BMP180;9519;51.890;8.970;2022-08-21T04:34:43;99455.00;;;14.30
18782;BMP180;9519;51.890;8.970;2022-08-21T04:39:49;99450.00;;;14.30
18782;BMP180;9519;51.890;8.970;2022-08-21T04:44:51;99463.00;;;14.30
18782;BMP180;9519;51.890;8.970;2022-08-21T04:49:53;99466.00;;;14.40
18782;BMP180;9519;51.890;8.970;2022-08-21T04:54:57;99474.00;;;14.40
18782;BMP180;9519;51.890;8.970;2022-08-21T05:00:00;99474.00;;;14.50
18782;BMP180;9519;51.890;8.970;2022-08-21T05:05:04;99480.00;;;14.60
18782;BMP180;9519;51.890;8.970;2022-08-21T05:10:09;99476.00;;;14.70
18782;BMP180;9519;51.890;8.970;2022-08-21T05:15:12;99479.00;;;14.80
18782;BMP180;9519;51.890;8.970;2022-08-21T05:20:14;99475.00;;;14.90
18782;BMP180;9519;51.890;8.970;2022-08-21T05:25:17;99475.00;;;15.00
18782;BMP180;9519;51.890;8.970;2022-08-21T05:30:21;99486.00;;;15.00
18782;BMP180;9519;51.890;8.970;2022-08-21T05:35:23;99484.00;;;15.10
18782;BMP180;9519;51.890;8.970;2022-08-21T05:40:27;99481.00;;;15.20
18782;BMP180;9519;51.890;8.970;2022-08-21T05:45:32;99487.00;;;15.30
18782;BMP180;9519;51.890;8.970;2022-08-21T05:50:35;99487.00;;;15.40
18782;BMP180;9519;51.890;8.970;2022-08-21T05:55:40;99483.00;;;15.50
18782;BMP180;9519;51.890;8.970;2022-08-21T06:00:42;99493.00;;;15.50
18782;BMP180;9519;51.890;8.970;2022-08-21T06:05:45;99489.00;;;15.60
18782;BMP180;9519;51.890;8.970;2022-08-21T06:10:50;99483.00;;;15.60
18782;BMP180;9519;51.890;8.970;2022-08-21T06:16:04;99481.00;;;15.70
18782;BMP180;9519;51.890;8.970;2022-08-21T06:21:07;99489.00;;;15.70
18782;BMP180;9519;51.890;8.970;2022-08-21T06:26:13;99480.00;;;15.80
18782;BMP180;9519;51.890;8.970;2022-08-21T06:31:21;99490.00;;;15.90
18782;BMP180;9519;51.890;8.970;2022-08-21T06:36:24;99481.00;;;16.00
18782;BMP180;9519;51.890;8.970;2022-08-21T06:41:28;99490.00;;;16.20
18782;BMP180;9519;51.890;8.970;2022-08-21T06:46:30;99477.00;;;16.30
18782;BMP180;9519;51.890;8.970;2022-08-21T06:51:33;99474.00;;;16.50
18782;BMP180;9519;51.890;8.970;2022-08-21T06:56:36;99483.00;;;16.70
18782;BMP180;9519;51.890;8.970;2022-08-21T07:01:39;99478.00;;;16.80
18782;BMP180;9519;51.890;8.970;2022-08-21T07:06:41;99469.00;;;16.90
18782;BMP180;9519;51.890;8.970;2022-08-21T07:11:47;99464.00;;;17.00
18782;BMP180;9519;51.890;8.970;2022-08-21T07:16:51;99469.00;;;17.20
18782;BMP180;9519;51.890;8.970;2022-08-21T07:21:58;99464.00;;;17.40
18782;BMP180;9519;51.890;8.970;2022-08-21T07:27:03;99465.00;;;17.50
18782;BMP180;9519;51.890;8.970;2022-08-21T07:32:05;99466.00;;;17.70
18782;BMP180;9519;51.890;8.970;2022-08-21T07:37:07;99462.00;;;17.90
18782;BMP180;9519;51.890;8.970;2022-08-21T07:42:11;99463.00;;;18.10
18782;BMP180;9519;51.890;8.970;2022-08-21T07:47:13;99459.00;;;18.30
18782;BMP180;9519;51.890;8.970;2022-08-21T07:52:15;99451.00;;;18.50
18782;BMP180;9519;51.890;8.970;2022-08-21T07:57:19;99460.00;;;18.60
18782;BMP180;9519;51.890;8.970;2022-08-21T08:02:24;99452.00;;;18.80
18782;BMP180;9519;51.890;8.970;2022-08-21T08:07:27;99456.00;;;19.00
18782;BMP180;9519;51.890;8.970;2022-08-21T08:12:30;99452.00;;;19.20
18782;BMP180;9519;51.890;8.970;2022-08-21T08:17:33;99443.00;;;19.30
18782;BMP180;9519;51.890;8.970;2022-08-21T08:22:37;99450.00;;;19.50
18782;BMP180;9519;51.890;8.970;2022-08-21T08:27:41;99440.00;;;19.60
18782;BMP180;9519;51.890;8.970;2022-08-21T08:32:43;99440.00;;;19.80
18782;BMP180;9519;51.890;8.970;2022-08-21T08:37:46;99439.00;;;20.00
18782;BMP180;9519;51.890;8.970;2022-08-21T08:42:50;99436.00;;;20.00
18782;BMP180;9519;51.890;8.970;2022-08-21T08:47:56;99429.00;;;20.20
18782;BMP180;9519;51.890;8.970;2022-08-21T08:53:07;99424.00;;;20.20
18782;BMP180;9519;51.890;8.970;2022-08-21T08:58:18;99432.00;;;20.40
18782;BMP180;9519;51.890;8.970;2022-08-21T09:03:23;99427.00;;;20.40
18782;BMP180;9519;51.890;8.970;2022-08-21T09:08:46;99419.00;;;20.50
18782;BMP180;9519;51.890;8.970;2022-08-21T09:14:08;99423.00;;;20.60
18782;BMP180;9519;51.890;8.970;2022-08-21T09:19:32;99410.00;;;20.60
18782;BMP180;9519;51.890;8.970;2022-08-21T09:24:51;99415.00;;;20.70
18782;BMP180;9519;51.890;8.970;2022-08-21T09:29:56;99423.00;;;20.80
18782;BMP180;9519;51.890;8.970;2022-08-21T09:35:05;99413.00;;;21.00
18782;BMP180;9519;51.890;8.970;2022-08-21T09:40:29;99408.00;;;21.10
18782;BMP180;9519;51.890;8.970;2022-08-21T09:45:33;99405.00;;;21.20
18782;BMP180;9519;51.890;8.970;2022-08-21T09:50:36;99401.00;;;21.30
18782;BMP180;9519;51.890;8.970;2022-08-21T09:55:50;99409.00;;;21.40
18782;BMP180;9519;51.890;8.970;2022-08-21T10:01:21;99394.00;;;21.50
18782;BMP180;9519;51.890;8.970;2022-08-21T10:06:27;99386.00;;;21.60
18782;BMP180;9519;51.890;8.970;2022-08-21T10:11:31;99384.00;;;21.70
18782;BMP180;9519;51.890;8.970;2022-08-21T10:16:47;99381.00;;;21.80
18782;BMP180;9519;51.890;8.970;2022-08-21T10:22:05;99381.00;;;21.90
18782;BMP180;9519;51.890;8.970;2022-08-21T10:27:20;99372.00;;;21.90
18782;BMP180;9519;51.890;8.970;2022-08-21T10:32:41;99370.00;;;22.00
18782;BMP180;9519;51.890;8.970;2022-08-21T10:43:25;99356.00;;;22.10
18782;BMP180;9519;51.890;8.970;2022-08-21T10:48:37;99363.00;;;22.30
18782;BMP180;9519;51.890;8.970;2022-08-21T10:53:54;99351.00;;;22.50
18782;BMP180;9519;51.890;8.970;2022-08-21T10:59:23;99355.00;;;22.50
18782;BMP180;9519;51.890;8.970;2022-08-21T11:04:36;99354.00;;;22.40
18782;BMP180;9519;51.890;8.970;2022-08-21T11:09:43;99413.00;;;22.50
18782;BMP180;9519;51.890;8.970;2022-08-21T11:14:56;99439.00;;;22.70
18782;BMP180;9519;51.890;8.970;2022-08-21T11:20:12;99424.00;;;22.90
18782;BMP180;9519;51.890;8.970;2022-08-21T11:25:23;99432.00;;;22.90
18782;BMP180;9519;51.890;8.970;2022-08-21T11:30:39;99412.00;;;23.00
18782;BMP180;9519;51.890;8.970;2022-08-21T11:35:53;99437.00;;;23.10
18782;BMP180;9519;51.890;8.970;2022-08-21T11:41:19;99433.00;;;23.20
18782;BMP180;9519;51.890;8.970;2022-08-21T11:46:32;99430.00;;;23.20
18782;BMP180;9519;51.890;8.970;2022-08-21T11:51:46;99421.00;;;23.30
18782;BMP180;9519;51.890;8.970;2022-08-21T11:56:57;99424.00;;;23.40
18782;BMP180;9519;51.890;8.970;2022-08-21T12:02:01;99424.00;;;23.60
18782;BMP180;9519;51.890;8.970;2022-08-21T12:07:15;99419.00;;;23.70
18782;BMP180;9519;51.890;8.970;2022-08-21T12:12:25;99418.00;;;23.60
18782;BMP180;9519;51.890;8.970;2022-08-21T12:17:39;99423.00;;;23.50
18782;BMP180;9519;51.890;8.970;2022-08-21T12:22:52;99424.00;;;23.40
18782;BMP180;9519;51.890;8.970;2022-08-21T12:28:07;99420.00;;;23.50
18782;BMP180;9519;51.890;8.970;2022-08-21T12:33:24;99414.00;;;23.70
18782;BMP180;9519;51.890;8.970;2022-08-21T12:38:39;99412.00;;;23.70
18782;BMP180;9519;51.890;8.970;2022-08-21T12:43:51;99412.00;;;23.70
18782;BMP180;9519;51.890;8.970;2022-08-21T12:49:00;99401.00;;;23.80
18782;BMP180;9519;51.890;8.970;2022-08-21T12:54:05;99395.00;;;23.90
18782;BMP180;9519;51.890;8.970;2022-08-21T12:59:12;99384.00;;;24.00
18782;BMP180;9519;51.890;8.970;2022-08-21T13:04:20;99389.00;;;24.20
18782;BMP180;9519;51.890;8.970;2022-08-21T13:09:29;99384.00;;;24.20
18782;BMP180;9519;51.890;8.970;2022-08-21T13:14:37;99389.00;;;24.40
18782;BMP180;9519;51.890;8.970;2022-08-21T13:19:40;99372.00;;;24.80
18782;BMP180;9519;51.890;8.970;2022-08-21T13:24:47;99365.00;;;24.90
18782;BMP180;9519;51.890;8.970;2022-08-21T13:30:05;99370.00;;;25.10
18782;BMP180;9519;51.890;8.970;2022-08-21T13:35:16;99359.00;;;25.30
18782;BMP180;9519;51.890;8.970;2022-08-21T13:40:26;99356.00;;;25.60
18782;BMP180;9519;51.890;8.970;2022-08-21T13:45:32;99351.00;;;25.70
18782;BMP180;9519;51.890;8.970;2022-08-21T13:50:37;99354.00;;;25.90
18782;BMP180;9519;51.890;8.970;2022-08-21T13:55:43;99352.00;;;26.00
18782;BMP180;9519;51.890;8.970;2022-08-21T14:00:49;99348.00;;;26.00
18782;BMP180;9519;51.890;8.970;2022-08-21T14:05:51;99351.00;;;26.10
18782;BMP180;9519;51.890;8.970;2022-08-21T14:10:55;99354.00;;;26.60
18782;BMP180;9519;51.890;8.970;2022-08-21T14:16:00;99344.00;;;27.00
18782;BMP180;9519;51.890;8.970;2022-08-21T14:21:08;99331.00;;;27.20
18782;BMP180;9519;51.890;8.970;2022-08-21T14:26:12;99336.00;;;27.30
18782;BMP180;9519;51.890;8.970;2022-08-21T14:31:18;99335.00;;;27.40
18782;BMP180;9519;51.890;8.970;2022-08-21T14:36:21;99308.00;;;27.60
18782;BMP180;9519;51.890;8.970;2022-08-21T14:41:28;99326.00;;;27.80
18782;BMP180;9519;51.890;8.970;2022-08-21T14:46:31;99319.00;;;28.10
18782;BMP180;9519;51.890;8.970;2022-08-21T14:51:35;99323.00;;;28.00
18782;BMP180;9519;51.890;8.970;2022-08-21T14:56:39;99331.00;;;28.00
18782;BMP180;9519;51.890;8.970;2022-08-21T15:01:41;99338.00;;;27.90
18782;BMP180;9519;51.890;8.970;2022-08-21T15:06:43;99334.00;;;28.30
18782;BMP180;9519;51.890;8.970;2022-08-21T15:11:47;99331.00;;;28.60
18782;BMP180;9519;51.890;8.970;2022-08-21T15:16:50;99320.00;;;28.60
18782;BMP180;9519;51.890;8.970;2022-08-21T15:21:53;99323.00;;;28.20
18782;BMP180;9519;51.890;8.970;2022-08-21T15:27:01;99338.00;;;28.00
18782;BMP180;9519;51.890;8.970;2022-08-21T15:32:18;99332.00;;;27.80
18782;BMP180;9519;51.890;8.970;2022-08-21T15:37:23;99325.00;;;27.70
18782;BMP180;9519;51.890;8.970;2022-08-21T15:42:27;99331.00;;;27.90
18782;BMP180;9519;51.890;8.970;2022-08-21T15:47:33;99343.00;;;27.50
18782;BMP180;9519;51.890;8.970;2022-08-21T15:52:36;99339.00;;;27.20
18782;BMP180;9519;51.890;8.970;2022-08-21T15:57:46;99350.00;;;26.70
18782;BMP180;9519;51.890;8.970;2022-08-21T16:02:53;99363.00;;;26.50
18782;BMP180;9519;51.890;8.970;2022-08-21T16:07:56;99359.00;;;26.30
18782;BMP180;9519;51.890;8.970;2022-08-21T16:13:04;99357.00;;;26.10
18782;BMP180;9519;51.890;8.970;2022-08-21T16:18:06;99361.00;;;25.90
18782;BMP180;9519;51.890;8.970;2022-08-21T16:23:08;99360.00;;;25.70
18782;BMP180;9519;51.890;8.970;2022-08-21T16:28:17;99362.00;;;25.50
18782;BMP180;9519;51.890;8.970;2022-08-21T16:33:26;99369.00;;;25.30
18782;BMP180;9519;51.890;8.970;2022-08-21T16:38:30;99358.00;;;25.20
18782;BMP180;9519;51.890;8.970;2022-08-21T16:43:34;99360.00;;;25.10
18782;BMP180;9519;51.890;8.970;2022-08-21T16:48:36;99345.00;;;25.20
18782;BMP180;9519;51.890;8.970;2022-08-21T16:53:39;99353.00;;;25.20
18782;BMP180;9519;51.890;8.970;2022-08-21T16:58:47;99351.00;;;25.30
18782;BMP180;9519;51.890;8.970;2022-08-21T17:03:50;99346.00;;;25.40
18782;BMP180;9519;51.890;8.970;2022-08-21T17:08:53;99347.00;;;25.30
18782;BMP180;9519;51.890;8.970;2022-08-21T17:14:00;99354.00;;;24.90
18782;BMP180;9519;51.890;8.970;2022-08-21T17:19:04;99351.00;;;24.60
18782;BMP180;9519;51.890;8.970;2022-08-21T17:24:07;99366.00;;;24.40
18782;BMP180;9519;51.890;8.970;2022-08-21T17:29:13;99362.00;;;24.20
18782;BMP180;9519;51.890;8.970;2022-08-21T17:34:16;99373.00;;;24.00
18782;BMP180;9519;51.890;8.970;2022-08-21T17:39:19;99296.00;;;23.70
18782;BMP180;9519;51.890;8.970;2022-08-21T17:44:25;99297.00;;;23.60
18782;BMP180;9519;51.890;8.970;2022-08-21T17:49:27;99294.00;;;23.40
18782;BMP180;9519;51.890;8.970;2022-08-21T17:54:31;99293.00;;;23.30
18782;BMP180;9519;51.890;8.970;2022-08-21T17:59:34;99297.00;;;23.10
18782;BMP180;9519;51.890;8.970;2022-08-21T18:04:37;99316.00;;;22.90
18782;BMP180;9519;51.890;8.970;2022-08-21T18:09:40;99309.00;;;22.70
18782;BMP180;9519;51.890;8.970;2022-08-21T18:14:45;99320.00;;;22.50
18782;BMP180;9519;51.890;8.970;2022-08-21T18:19:50;99312.00;;;22.40
18782;BMP180;9519;51.890;8.970;2022-08-21T18:24:52;99322.00;;;22.30
18782;BMP180;9519;51.890;8.970;2022-08-21T18:29:58;99323.00;;;22.10
18782;BMP180;9519;51.890;8.970;2022-08-21T18:35:05;99331.00;;;22.00
18782;BMP180;9519;51.890;8.970;2022-08-21T18:40:09;99337.00;;;21.90
18782;BMP180;9519;51.890;8.970;2022-08-21T18:45:18;99349.00;;;21.80
18782;BMP180;9519;51.890;8.970;2022-08-21T18:50:26;99349.00;;;21.60
18782;BMP180;9519;51.890;8.970;2022-08-21T18:55:29;99363.00;;;21.50
18782;BMP180;9519;51.890;8.970;2022-08-21T19:00:39;99360.00;;;21.30
18782;BMP180;9519;51.890;8.970;2022-08-21T19:05:48;99367.00;;;21.00
18782;BMP180;9519;51.890;8.970;2022-08-21T19:10:55;99372.00;;;20.80
18782;BMP180;9519;51.890;8.970;2022-08-21T19:16:00;99381.00;;;20.60
18782;BMP180;9519;51.890;8.970;2022-08-21T19:21:05;99394.00;;;20.40
18782;BMP180;9519;51.890;8.970;2022-08-21T19:26:08;99401.00;;;20.30
18782;BMP180;9519;51.890;8.970;2022-08-21T19:31:15;99399.00;;;20.20
18782;BMP180;9519;51.890;8.970;2022-08-21T19:36:18;99397.00;;;20.00
18782;BMP180;9519;51.890;8.970;2022-08-21T19:41:24;99391.00;;;19.80
18782;BMP180;9519;51.890;8.970;2022-08-21T19:46:31;99398.00;;;19.60
18782;BMP180;9519;51.890;8.970;2022-08-21T19:51:34;99396.00;;;19.50
18782;BMP180;9519;51.890;8.970;2022-08-21T19:56:37;99404.00;;;19.40
18782;BMP180;9519;51.890;8.970;2022-08-21T20:01:41;99403.00;;;19.30
18782;BMP180;9519;51.890;8.970;2022-08-21T20:06:43;99407.00;;;19.20
18782;BMP180;9519;51.890;8.970;2022-08-21T20:11:49;99407.00;;;19.10
18782;BMP180;9519;51.890;8.970;2022-08-21T20:16:55;99412.00;;;19.00
18782;BMP180;9519;51.890;8.970;2022-08-21T20:21:58;99405.00;;;19.00
18782;BMP180;9519;51.890;8.970;2022-08-21T20:27:03;99414.00;;;18.90
18782;BMP180;9519;51.890;8.970;2022-08-21T20:32:08;99423.00;;;18.70
18782;BMP180;9519;51.890;8.970;2022-08-21T20:37:10;99423.00;;;18.50
18782;BMP180;9519;51.890;8.970;2022-08-21T20:42:12;99418.00;;;18.40
18782;BMP180;9519;51.890;8.970;2022-08-21T20:47:18;99429.00;;;18.30
18782;BMP180;9519;51.890;8.970;2022-08-21T20:52:23;99427.00;;;18.10
18782;BMP180;9519;51.890;8.970;2022-08-21T20:57:33;99435.00;;;18.00
18782;BMP180;9519;51.890;8.970;2022-08-21T21:02:48;99429.00;;;17.90
18782;BMP180;9519;51.890;8.970;2022-08-21T21:08:00;99425.00;;;17.80
18782;BMP180;9519;51.890;8.970;2022-08-21T21:13:12;99435.00;;;17.60
18782;BMP180;9519;51.890;8.970;2022-08-21T21:18:23;99432.00;;;17.60
18782;BMP180;9519;51.890;8.970;2022-08-21T21:23:37;99428.00;;;17.50
18782;BMP180;9519;51.890;8.970;2022-08-21T21:28:49;99430.00;;;17.40
18782;BMP180;9519;51.890;8.970;2022-08-21T21:33:54;99440.00;;;17.30
18782;BMP180;9519;51.890;8.970;2022-08-21T21:39:08;99442.00;;;17.20
18782;BMP180;9519;51.890;8.970;2022-08-21T21:44:32;99443.00;;;17.10
18782;BMP180;9519;51.890;8.970;2022-08-21T21:50:13;99442.00;;;17.00
18782;BMP180;9519;51.890;8.970;2022-08-21T21:55:40;99441.00;;;16.90
18782;BMP180;9519;51.890;8.970;2022-08-21T22:00:57;99446.00;;;16.80
18782;BMP180;9519;51.890;8.970;2022-08-21T22:06:13;99453.00;;;16.70
18782;BMP180;9519;51.890;8.970;2022-08-21T22:11:25;99445.00;;;16.60
18782;BMP180;9519;51.890;8.970;2022-08-21T22:16:30;99456.00;;;16.50
18782;BMP180;9519;51.890;8.970;2022-08-21T22:21:37;99448.00;;;16.40
18782;BMP180;9519;51.890;8.970;2022-08-21T22:26:47;99460.00;;;16.30
18782;BMP180;9519;51.890;8.970;2022-08-21T22:32:09;99456.00;;;16.20
18782;BMP180;9519;51.890;8.970;2022-08-21T22:37:13;99450.00;;;16.20
18782;BMP180;9519;51.890;8.970;2022-08-21T22:42:22;99451.00;;;16.20
18782;BMP180;9519;51.890;8.970;2022-08-21T22:47:31;99444.00;;;16.10
18782;BMP180;9519;51.890;8.970;2022-08-21T22:52:46;99452.00;;;16.10
18782;BMP180;9519;51.890;8.970;2022-08-21T22:58:04;99442.00;;;16.00
18782;BMP180;9519;51.890;8.970;2022-08-21T23:03:06;99445.00;;;15.90
18782;BMP180;9519;51.890;8.970;2022-08-21T23:08:23;99444.00;;;15.80
18782;BMP180;9519;51.890;8.970;2022-08-21T23:13:29;99444.00;;;15.80
18782;BMP180;9519;51.890;8.970;2022-08-21T23:18:53;99457.00;;;15.70
18782;BMP180;9519;51.890;8.970;2022-08-21T23:24:29;99441.00;;;15.60
18782;BMP180;9519;51.890;8.970;2022-08-21T23:29:45;99444.00;;;15.50
18782;BMP180;9519;51.890;8.970;2022-08-21T23:35:02;99442.00;;;15.50
18782;BMP180;9519;51.890;8.970;2022-08-21T23:40:32;99442.00;;;15.40
18782;BMP180;9519;51.890;8.970;2022-08-21T23:45:45;99447.00;;;15.40
18782;BMP180;9519;51.890;8.970;2022-08-21T23:51:00;99450.00;;;15.30
18782;BMP180;9519;51.890;8.970;2022-08-21T23:56:21;99443.00;;;15.20
